sensor_id;sensor_type;location;lat;lon;timestamp;pressure;altitude;pressure_sealevel;temperature;humidity
21357;BME280;10836;53.068;18.234;2023-06-14T00:00:23;101348.81;;;13.57;100.00
21357;BME280;10836;53.068;18.234;2023-06-14T00:03:10;101346.88;;;13.68;100.00
21357;BME280;10836;53.068;18.234;2023-06-14T00:05:39;101341.94;;;13.60;100.00
21357;BME280;10836;53.068;18.234;2023-06-14T00:08:10;101345.78;;;13.59;100.00
21357;BME280;10836;53.068;18.234;2023-06-14T00:10:37;101337.00;;;13.57;100.00
21357;BME280;10836;53.068;18.234;2023-06-14T00:13:05;101336.97;;;13.77;100.00
21357;BME280;10836;53.068;18.234;2023-06-14T00:15:34;101336.41;;;13.80;100.00
21357;BME280;10836;53.068;18.234;2023-06-14T00:18:02;101334.72;;;13.89;100.00
21357;BME280;10836;53.068;18.234;2023-06-14T00:20:30;101333.31;;;13.92;100.00
21357;BME280;10836;53.068;18.234;2023-06-14T00:23:00;101338.56;;;13.88;100.00
21357;BME280;10836;53.068;18.234;2023-06-14T00:25:27;101338.06;;;13.81;100.00
21357;BME280;10836;53.068;18.234;2023-06-14T00:27:57;101339.97;;;13.81;100.00
21357;BME280;10836;53.068;18.234;2023-06-14T00:30:25;101328.16;;;13.85;100.00
21357;BME280;10836;53.068;18.234;2023-06-14T00:32:52;101330.03;;;13.90;100.00
21357;BME280;10836;53.068;18.234;2023-06-14T00:35:19;101332.56;;;13.81;100.00
21357;BME280;10836;53.068;18.234;2023-06-14T00:37:46;101329.31;;;13.69;100.00
21357;BME280;10836;53.068;18.234;2023-06-14T00:40:13;101328.22;;;13.60;100.00
21357;BME280;10836;53.068;18.234;2023-06-14T00:42:41;101319.69;;;13.67;100.00
21357;BME280;10836;53.068;18.234;2023-06-14T00:45:09;101308.53;;;13.43;100.00
21357;BME280;10836;53.068;18.234;2023-06-14T00:47:37;101312.94;;;13.39;100.00
21357;BME280;10836;53.068;18.234;2023-06-14T00:50:08;101296.97;;;13.46;100.00
21357;BME280;10836;53.068;18.234;2023-06-14T00:52:36;101284.97;;;13.31;100.00
21357;BME280;10836;53.068;18.234;2023-06-14T00:55:04;101288.25;;;13.23;100.00
21357;BME280;10836;53.068;18.234;2023-06-14T00:57:31;101291.28;;;13.17;100.00
21357;BME280;10836;53.068;18.234;2023-06-14T00:59:58;101290.44;;;13.26;100.00
21357;BME280;10836;53.068;18.234;2023-06-14T01:02:26;101287.16;;;13.29;100.00
21357;BME280;10836;53.068;18.234;2023-06-14T01:04:53;101299.78;;;13.30;100.00
21357;BME280;10836;53.068;18.234;2023-06-14T01:10:21;101295.66;;;13.28;100.00
21357;BME280;10836;53.068;18.234;2023-06-14T01:15:32;101296.75;;;13.17;100.00
21357;BME280;10836;53.068;18.234;2023-06-14T01:18:01;101300.31;;;13.07;100.00
21357;BME280;10836;53.068;18.234;2023-06-14T01:20:33;101284.44;;;12.94;100.00
21357;BME280;10836;53.068;18.234;2023-06-14T01:23:04;101279.47;;;13.11;100.00
21357;BME280;10836;53.068;18.234;2023-06-14T01:25:31;101275.06;;;13.15;100.00
21357;BME280;10836;53.068;18.234;2023-06-14T01:28:06;101274.84;;;12.76;100.00
21357;BME280;10836;53.068;18.234;2023-06-14T01:30:39;101278.66;;;12.80;100.00
21357;BME280;10836;53.068;18.234;2023-06-14T01:33:16;101283.88;;;12.77;100.00
21357;BME280;10836;53.068;18.234;2023-06-14T01:35:47;101281.16;;;12.87;100.00
21357;BME280;10836;53.068;18.234;2023-06-14T01:38:15;101275.38;;;12.88;100.00
21357;BME280;10836;53.068;18.234;2023-06-14T01:40:44;101272.66;;;12.83;100.00
21357;BME280;10836;53.068;18.234;2023-06-14T01:43:13;101265.78;;;12.86;100.00
21357;BME280;10836;53.068;18.234;2023-06-14T01:45:41;101274.84;;;12.81;100.00
21357;BME280;10836;53.068;18.234;2023-06-14T01:48:09;101269.09;;;12.88;100.00
21357;BME280;10836;53.068;18.234;2023-06-14T01:50:36;101270.19;;;12.92;100.00
21357;BME280;10836;53.068;18.234;2023-06-14T01:53:07;101270.72;;;12.84;100.00
21357;BME280;10836;53.068;18.234;2023-06-14T01:55:36;101270.19;;;12.82;100.00
21357;BME280;10836;53.068;18.234;2023-06-14T01:58:10;101272.91;;;12.77;100.00
21357;BME280;10836;53.068;18.234;2023-06-14T02:00:37;101271.28;;;12.50;100.00
21357;BME280;10836;53.068;18.234;2023-06-14T02:03:04;101270.47;;;12.55;100.00
21357;BME280;10836;53.068;18.234;2023-06-14T02:05:31;101272.91;;;12.56;100.00
21357;BME280;10836;53.068;18.234;2023-06-14T02:07:59;101262.50;;;12.43;100.00
21357;BME280;10836;53.068;18.234;2023-06-14T02:10:26;101255.94;;;12.49;100.00
21357;BME280;10836;53.068;18.234;2023-06-14T02:12:54;101265.22;;;12.58;100.00
21357;BME280;10836;53.068;18.234;2023-06-14T02:15:21;101275.91;;;12.45;100.00
21357;BME280;10836;53.068;18.234;2023-06-14T02:17:49;101274.50;;;12.27;100.00
21357;BME280;10836;53.068;18.234;2023-06-14T02:20:16;101259.72;;;12.23;100.00
21357;BME280;10836;53.068;18.234;2023-06-14T02:22:45;101266.34;;;12.42;100.00
21357;BME280;10836;53.068;18.234;2023-06-14T02:25:12;101251.00;;;12.46;100.00
21357;BME280;10836;53.068;18.234;2023-06-14T02:27:40;101260.56;;;12.39;100.00
21357;BME280;10836;53.068;18.234;2023-06-14T02:30:09;101250.47;;;12.49;100.00
21357;BME280;10836;53.068;18.234;2023-06-14T02:32:37;101246.63;;;12.55;100.00
21357;BME280;10836;53.068;18.234;2023-06-14T02:35:04;101238.94;;;12.62;100.00
21357;BME280;10836;53.068;18.234;2023-06-14T02:37:34;101237.59;;;12.50;100.00
21357;BME280;10836;53.068;18.234;2023-06-14T02:40:02;101229.63;;;12.63;100.00
21357;BME280;10836;53.068;18.234;2023-06-14T02:42:30;101229.09;;;12.51;100.00
21357;BME280;10836;53.068;18.234;2023-06-14T02:44:57;101224.44;;;12.52;100.00
21357;BME280;10836;53.068;18.234;2023-06-14T02:47:25;101239.47;;;12.64;100.00
21357;BME280;10836;53.068;18.234;2023-06-14T02:49:52;101237.84;;;12.69;100.00
21357;BME280;10836;53.068;18.234;2023-06-14T02:52:19;101242.75;;;12.56;100.00
21357;BME280;10836;53.068;18.234;2023-06-14T02:54:47;101243.31;;;12.69;100.00
21357;BME280;10836;53.068;18.234;2023-06-14T02:57:15;101234.00;;;12.59;100.00
21357;BME280;10836;53.068;18.234;2023-06-14T02:59:42;101241.41;;;12.54;100.00
21357;BME280;10836;53.068;18.234;2023-06-14T03:02:10;101235.38;;;12.62;100.00
21357;BME280;10836;53.068;18.234;2023-06-14T03:04:37;101240.56;;;12.69;100.00
21357;BME280;10836;53.068;18.234;2023-06-14T03:07:13;101233.19;;;12.54;100.00
21357;BME280;10836;53.068;18.234;2023-06-14T03:09:42;101232.34;;;12.69;100.00
21357;BME280;10836;53.068;18.234;2023-06-14T03:12:11;101235.66;;;12.71;100.00
21357;BME280;10836;53.068;18.234;2023-06-14T03:14:38;101230.16;;;12.71;100.00
21357;BME280;10836;53.068;18.234;2023-06-14T03:17:08;101235.09;;;12.69;100.00
21357;BME280;10836;53.068;18.234;2023-06-14T03:19:36;101234.56;;;12.72;100.00
21357;BME280;10836;53.068;18.234;2023-06-14T03:22:05;101239.75;;;12.78;100.00
21357;BME280;10836;53.068;18.234;2023-06-14T03:24:32;101237.84;;;12.74;100.00
21357;BME280;10836;53.068;18.234;2023-06-14T03:27:09;101240.56;;;12.74;100.00
21357;BME280;10836;53.068;18.234;2023-06-14T03:29:39;101254.28;;;12.69;100.00
21357;BME280;10836;53.068;18.234;2023-06-14T03:32:07;101254.81;;;12.65;100.00
21357;BME280;10836;53.068;18.234;2023-06-14T03:34:38;101246.59;;;12.60;100.00
21357;BME280;10836;53.068;18.234;2023-06-14T03:37:13;101258.38;;;12.66;100.00
21357;BME280;10836;53.068;18.234;2023-06-14T03:39:40;101259.50;;;12.75;100.00
21357;BME280;10836;53.068;18.234;2023-06-14T03:42:18;101259.22;;;12.72;100.00
21357;BME280;10836;53.068;18.234;2023-06-14T03:44:46;101260.59;;;12.69;100.00
21357;BME280;10836;53.068;18.234;2023-06-14T03:47:14;101263.03;;;12.71;100.00
21357;BME280;10836;53.068;18.234;2023-06-14T03:49:42;101255.94;;;12.75;100.00
21357;BME280;10836;53.068;18.234;2023-06-14T03:52:09;101255.38;;;12.62;100.00
21357;BME280;10836;53.068;18.234;2023-06-14T03:54:38;101258.09;;;12.62;100.00
21357;BME280;10836;53.068;18.234;2023-06-14T03:57:08;101257.28;;;12.67;100.00
21357;BME280;10836;53.068;18.234;2023-06-14T03:59:36;101264.69;;;12.66;100.00
21357;BME280;10836;53.068;18.234;2023-06-14T04:02:04;101265.25;;;12.89;100.00
21357;BME280;10836;53.068;18.234;2023-06-14T04:04:32;101267.44;;;12.87;100.00
21357;BME280;10836;53.068;18.234;2023-06-14T04:07:00;101269.34;;;12.76;100.00
21357;BME280;10836;53.068;18.234;2023-06-14T04:09:27;101278.38;;;12.66;100.00
21357;BME280;10836;53.068;18.234;2023-06-14T04:11:54;101288.25;;;12.62;100.00
21357;BME280;10836;53.068;18.234;2023-06-14T04:14:23;101287.72;;;12.71;100.00
21357;BME280;10836;53.068;18.234;2023-06-14T04:16:50;101287.16;;;12.79;100.00
21357;BME280;10836;53.068;18.234;2023-06-14T04:19:19;101294.03;;;12.91;100.00
21357;BME280;10836;53.068;18.234;2023-06-14T04:21:46;101294.84;;;12.87;100.00
21357;BME280;10836;53.068;18.234;2023-06-14T04:24:15;101285.25;;;12.84;100.00
21357;BME280;10836;53.068;18.234;2023-06-14T04:26:45;101286.91;;;12.95;100.00
21357;BME280;10836;53.068;18.234;2023-06-14T04:29:16;101287.69;;;13.11;100.00
21357;BME280;10836;53.068;18.234;2023-06-14T04:31:54;101289.59;;;13.11;100.00
21357;BME280;10836;53.068;18.234;2023-06-14T04:34:23;101289.06;;;13.14;100.00
21357;BME280;10836;53.068;18.234;2023-06-14T04:36:54;101282.75;;;13.13;100.00
21357;BME280;10836;53.068;18.234;2023-06-14T04:39:29;101272.63;;;13.24;100.00
21357;BME280;10836;53.068;18.234;2023-06-14T04:41:58;101264.09;;;13.36;100.00
21357;BME280;10836;53.068;18.234;2023-06-14T04:44:27;101261.34;;;13.41;100.00
21357;BME280;10836;53.068;18.234;2023-06-14T04:47:01;101260.75;;;13.44;100.00
21357;BME280;10836;53.068;18.234;2023-06-14T04:49:28;101252.25;;;13.50;100.00
21357;BME280;10836;53.068;18.234;2023-06-14T04:52:00;101255.50;;;13.57;100.00
21357;BME280;10836;53.068;18.234;2023-06-14T04:54:40;101253.53;;;13.73;100.00
21357;BME280;10836;53.068;18.234;2023-06-14T04:57:15;101261.19;;;13.81;100.00
21357;BME280;10836;53.068;18.234;2023-06-14T04:59:46;101264.00;;;13.66;100.00
21357;BME280;10836;53.068;18.234;2023-06-14T05:02:13;101267.75;;;13.85;100.00
21357;BME280;10836;53.068;18.234;2023-06-14T05:04:40;101268.38;;;13.72;100.00
21357;BME280;10836;53.068;18.234;2023-06-14T05:07:08;101267.19;;;13.88;100.00
21357;BME280;10836;53.068;18.234;2023-06-14T05:09:36;101277.28;;;13.98;100.00
21357;BME280;10836;53.068;18.234;2023-06-14T05:12:04;101278.53;;;14.26;100.00
21357;BME280;10836;53.068;18.234;2023-06-14T05:14:31;101284.47;;;14.43;100.00
21357;BME280;10836;53.068;18.234;2023-06-14T05:16:58;101286.56;;;14.61;100.00
21357;BME280;10836;53.068;18.234;2023-06-14T05:19:25;101295.94;;;14.55;100.00
21357;BME280;10836;53.068;18.234;2023-06-14T05:21:52;101300.84;;;14.63;100.00
21357;BME280;10836;53.068;18.234;2023-06-14T05:24:20;101293.97;;;14.95;100.00
21357;BME280;10836;53.068;18.234;2023-06-14T05:26:47;101287.53;;;14.76;100.00
21357;BME280;10836;53.068;18.234;2023-06-14T05:29:15;101280.97;;;14.72;100.00
21357;BME280;10836;53.068;18.234;2023-06-14T05:31:42;101264.72;;;14.31;100.00
21357;BME280;10836;53.068;18.234;2023-06-14T05:34:10;101253.06;;;14.54;100.00
21357;BME280;10836;53.068;18.234;2023-06-14T05:36:37;101256.94;;;14.53;100.00
21357;BME280;10836;53.068;18.234;2023-06-14T05:39:04;101245.03;;;14.63;100.00
21357;BME280;10836;53.068;18.234;2023-06-14T05:41:32;101249.28;;;14.79;100.00
21357;BME280;10836;53.068;18.234;2023-06-14T05:43:59;101249.84;;;15.10;100.00
21357;BME280;10836;53.068;18.234;2023-06-14T05:46:27;101249.88;;;15.05;100.00
21357;BME280;10836;53.068;18.234;2023-06-14T05:48:55;101251.00;;;15.04;100.00
21357;BME280;10836;53.068;18.234;2023-06-14T05:51:22;101253.78;;;14.99;100.00
21357;BME280;10836;53.068;18.234;2023-06-14T05:53:52;101247.03;;;15.15;100.00
21357;BME280;10836;53.068;18.234;2023-06-14T05:56:19;101253.13;;;15.12;100.00
21357;BME280;10836;53.068;18.234;2023-06-14T05:58:46;101256.03;;;15.21;100.00
21357;BME280;10836;53.068;18.234;2023-06-14T06:01:14;101251.25;;;15.31;100.00
21357;BME280;10836;53.068;18.234;2023-06-14T06:03:41;101262.91;;;15.71;100.00
21357;BME280;10836;53.068;18.234;2023-06-14T06:06:08;101272.34;;;15.41;100.00
21357;BME280;10836;53.068;18.234;2023-06-14T06:08:35;101278.66;;;15.42;100.00
21357;BME280;10836;53.068;18.234;2023-06-14T06:11:02;101277.69;;;15.80;100.00
21357;BME280;10836;53.068;18.234;2023-06-14T06:13:29;101284.75;;;15.62;100.00
21357;BME280;10836;53.068;18.234;2023-06-14T06:15:56;101281.13;;;15.67;100.00
21357;BME280;10836;53.068;18.234;2023-06-14T06:18:23;101283.34;;;15.89;100.00
21357;BME280;10836;53.068;18.234;2023-06-14T06:20:50;101294.78;;;16.20;100.00
21357;BME280;10836;53.068;18.234;2023-06-14T06:23:18;101288.00;;;16.50;100.00
21357;BME280;10836;53.068;18.234;2023-06-14T06:25:45;101296.88;;;16.28;100.00
21357;BME280;10836;53.068;18.234;2023-06-14T06:28:12;101293.78;;;16.11;100.00
21357;BME280;10836;53.068;18.234;2023-06-14T06:30:39;101293.38;;;16.22;100.00
21357;BME280;10836;53.068;18.234;2023-06-14T06:33:05;101295.63;;;16.39;100.00
21357;BME280;10836;53.068;18.234;2023-06-14T06:35:33;101294.63;;;16.30;100.00
21357;BME280;10836;53.068;18.234;2023-06-14T06:38:00;101290.44;;;16.14;100.00
21357;BME280;10836;53.068;18.234;2023-06-14T06:40:28;101296.66;;;16.24;100.00
21357;BME280;10836;53.068;18.234;2023-06-14T06:42:55;101294.38;;;16.08;100.00
21357;BME280;10836;53.068;18.234;2023-06-14T06:45:26;101294.97;;;16.05;100.00
21357;BME280;10836;53.068;18.234;2023-06-14T06:47:53;101302.59;;;16.13;100.00
21357;BME280;10836;53.068;18.234;2023-06-14T06:50:20;101302.66;;;16.08;100.00
21357;BME280;10836;53.068;18.234;2023-06-14T06:52:49;101308.94;;;16.32;100.00
21357;BME280;10836;53.068;18.234;2023-06-14T06:55:17;101314.78;;;16.07;100.00
21357;BME280;10836;53.068;18.234;2023-06-14T06:57:45;101318.63;;;16.29;100.00
21357;BME280;10836;53.068;18.234;2023-06-14T07:00:12;101315.56;;;16.50;100.00
21357;BME280;10836;53.068;18.234;2023-06-14T07:02:40;101322.06;;;16.40;100.00
21357;BME280;10836;53.068;18.234;2023-06-14T07:05:08;101317.75;;;16.34;100.00
21357;BME280;10836;53.068;18.234;2023-06-14T07:07:35;101331.66;;;16.24;100.00
21357;BME280;10836;53.068;18.234;2023-06-14T07:10:03;101336.50;;;16.32;100.00
21357;BME280;10836;53.068;18.234;2023-06-14T07:12:31;101331.38;;;16.44;100.00
21357;BME280;10836;53.068;18.234;2023-06-14T07:15:01;101313.44;;;16.66;100.00
21357;BME280;10836;53.068;18.234;2023-06-14T07:17:29;101304.47;;;16.36;100.00
21357;BME280;10836;53.068;18.234;2023-06-14T07:19:57;101296.28;;;16.31;100.00
21357;BME280;10836;53.068;18.234;2023-06-14T07:22:23;101298.06;;;16.59;100.00
21357;BME280;10836;53.068;18.234;2023-06-14T07:24:51;101292.84;;;16.77;100.00
21357;BME280;10836;53.068;18.234;2023-06-14T07:27:18;101296.41;;;16.58;100.00
21357;BME280;10836;53.068;18.234;2023-06-14T07:29:45;101294.78;;;16.20;100.00
21357;BME280;10836;53.068;18.234;2023-06-14T07:32:12;101299.56;;;16.71;100.00
21357;BME280;10836;53.068;18.234;2023-06-14T07:34:39;101294.94;;;16.85;100.00
21357;BME280;10836;53.068;18.234;2023-06-14T07:37:07;101290.47;;;16.89;100.00
21357;BME280;10836;53.068;18.234;2023-06-14T07:39:34;101277.03;;;17.15;100.00
21357;BME280;10836;53.068;18.234;2023-06-14T07:42:01;101280.78;;;17.65;100.00
21357;BME280;10836;53.068;18.234;2023-06-14T07:44:29;101286.91;;;17.89;97.81
21357;BME280;10836;53.068;18.234;2023-06-14T07:46:58;101288.94;;;17.98;96.95
21357;BME280;10836;53.068;18.234;2023-06-14T07:49:28;101288.66;;;18.35;98.63
21357;BME280;10836;53.068;18.234;2023-06-14T07:51:55;101280.75;;;18.06;95.94
21357;BME280;10836;53.068;18.234;2023-06-14T07:54:22;101278.13;;;18.59;94.15
21357;BME280;10836;53.068;18.234;2023-06-14T07:56:53;101295.78;;;18.86;92.10
21357;BME280;10836;53.068;18.234;2023-06-14T07:59:20;101296.59;;;19.40;83.72
21357;BME280;10836;53.068;18.234;2023-06-14T08:01:47;101299.00;;;19.10;86.95
21357;BME280;10836;53.068;18.234;2023-06-14T08:04:15;101299.16;;;18.60;90.70
21357;BME280;10836;53.068;18.234;2023-06-14T08:06:42;101307.75;;;18.59;89.04
21357;BME280;10836;53.068;18.234;2023-06-14T08:09:13;101315.03;;;18.55;89.68
21357;BME280;10836;53.068;18.234;2023-06-14T08:11:39;101297.94;;;18.17;90.25
21357;BME280;10836;53.068;18.234;2023-06-14T08:14:07;101298.91;;;18.71;92.02
21357;BME280;10836;53.068;18.234;2023-06-14T08:16:34;101305.19;;;19.07;89.02
21357;BME280;10836;53.068;18.234;2023-06-14T08:19:02;101306.59;;;18.96;86.42
21357;BME280;10836;53.068;18.234;2023-06-14T08:21:29;101304.72;;;19.14;85.88
21357;BME280;10836;53.068;18.234;2023-06-14T08:23:58;101310.31;;;19.45;81.91
21357;BME280;10836;53.068;18.234;2023-06-14T08:26:25;101320.53;;;19.13;84.82
21357;BME280;10836;53.068;18.234;2023-06-14T08:29:01;101321.00;;;19.38;83.43
21357;BME280;10836;53.068;18.234;2023-06-14T08:31:28;101313.84;;;19.37;83.18
21357;BME280;10836;53.068;18.234;2023-06-14T08:33:55;101327.56;;;19.42;81.23
21357;BME280;10836;53.068;18.234;2023-06-14T08:36:22;101324.03;;;19.27;84.38
21357;BME280;10836;53.068;18.234;2023-06-14T08:38:49;101326.38;;;19.65;84.60
21357;BME280;10836;53.068;18.234;2023-06-14T08:41:21;101319.47;;;19.93;78.49
21357;BME280;10836;53.068;18.234;2023-06-14T08:43:50;101328.03;;;20.23;72.91
21357;BME280;10836;53.068;18.234;2023-06-14T08:46:18;101328.91;;;20.49;72.51
21357;BME280;10836;53.068;18.234;2023-06-14T08:48:49;101328.88;;;20.32;70.01
21357;BME280;10836;53.068;18.234;2023-06-14T08:51:19;101322.31;;;20.37;68.92
21357;BME280;10836;53.068;18.234;2023-06-14T08:53:46;101331.78;;;20.27;70.21
21357;BME280;10836;53.068;18.234;2023-06-14T08:56:17;101338.63;;;20.21;70.85
21357;BME280;10836;53.068;18.234;2023-06-14T08:58:46;101335.25;;;20.41;72.66
21357;BME280;10836;53.068;18.234;2023-06-14T09:01:14;101327.16;;;19.57;73.31
21357;BME280;10836;53.068;18.234;2023-06-14T09:03:44;101329.47;;;18.88;76.86
21357;BME280;10836;53.068;18.234;2023-06-14T09:06:11;101329.59;;;18.83;78.61
21357;BME280;10836;53.068;18.234;2023-06-14T09:08:45;101321.78;;;19.30;74.54
21357;BME280;10836;53.068;18.234;2023-06-14T09:11:14;101317.19;;;19.56;74.01
21357;BME280;10836;53.068;18.234;2023-06-14T09:13:41;101320.00;;;19.03;74.90
21357;BME280;10836;53.068;18.234;2023-06-14T09:16:09;101322.34;;;19.18;78.44
21357;BME280;10836;53.068;18.234;2023-06-14T09:18:41;101314.66;;;19.68;74.05
21357;BME280;10836;53.068;18.234;2023-06-14T09:21:11;101333.97;;;19.90;72.26
21357;BME280;10836;53.068;18.234;2023-06-14T09:23:40;101322.56;;;20.01;70.08
21357;BME280;10836;53.068;18.234;2023-06-14T09:26:09;101321.50;;;19.40;73.01
21357;BME280;10836;53.068;18.234;2023-06-14T09:28:44;101318.50;;;19.98;72.87
21357;BME280;10836;53.068;18.234;2023-06-14T09:31:14;101315.41;;;20.00;73.60
21357;BME280;10836;53.068;18.234;2023-06-14T09:33:47;101310.59;;;20.31;70.96
21357;BME280;10836;53.068;18.234;2023-06-14T09:36:21;101310.59;;;20.31;68.71
21357;BME280;10836;53.068;18.234;2023-06-14T09:38:59;101305.69;;;20.28;71.38
21357;BME280;10836;53.068;18.234;2023-06-14T09:41:37;101308.03;;;20.69;68.61
21357;BME280;10836;53.068;18.234;2023-06-14T09:44:07;101306.69;;;20.32;69.60
21357;BME280;10836;53.068;18.234;2023-06-14T09:46:38;101301.78;;;21.62;68.03
21357;BME280;10836;53.068;18.234;2023-06-14T09:49:08;101294.13;;;22.18;61.04
21357;BME280;10836;53.068;18.234;2023-06-14T09:51:42;101299.16;;;22.04;59.60
21357;BME280;10836;53.068;18.234;2023-06-14T09:54:15;101299.16;;;22.04;61.00
21357;BME280;10836;53.068;18.234;2023-06-14T09:56:45;101308.50;;;21.90;60.63
21357;BME280;10836;53.068;18.234;2023-06-14T09:59:16;101299.94;;;21.28;62.45
21357;BME280;10836;53.068;18.234;2023-06-14T10:01:46;101306.84;;;21.22;62.06
21357;BME280;10836;53.068;18.234;2023-06-14T10:04:15;101317.81;;;20.49;62.80
21357;BME280;10836;53.068;18.234;2023-06-14T10:06:47;101311.91;;;20.94;62.71
21357;BME280;10836;53.068;18.234;2023-06-14T10:09:14;101312.88;;;20.98;63.69
21357;BME280;10836;53.068;18.234;2023-06-14T10:11:42;101313.47;;;20.09;65.86
21357;BME280;10836;53.068;18.234;2023-06-14T10:14:12;101317.03;;;20.01;68.25
21357;BME280;10836;53.068;18.234;2023-06-14T10:16:56;101304.84;;;20.10;65.05
21357;BME280;10836;53.068;18.234;2023-06-14T10:19:34;101295.50;;;19.98;66.48
21357;BME280;10836;53.068;18.234;2023-06-14T10:24:44;101295.41;;;19.63;68.77
21357;BME280;10836;53.068;18.234;2023-06-14T10:27:14;101299.91;;;19.90;68.10
21357;BME280;10836;53.068;18.234;2023-06-14T10:32:24;101303.09;;;20.92;59.82
21357;BME280;10836;53.068;18.234;2023-06-14T10:35:00;101290.25;;;21.43;60.20
21357;BME280;10836;53.068;18.234;2023-06-14T10:37:27;101289.00;;;22.08;58.33
21357;BME280;10836;53.068;18.234;2023-06-14T10:39:55;101293.47;;;22.63;58.32
21357;BME280;10836;53.068;18.234;2023-06-14T10:42:21;101297.94;;;22.76;54.51
21357;BME280;10836;53.068;18.234;2023-06-14T10:44:55;101285.13;;;22.21;56.07
21357;BME280;10836;53.068;18.234;2023-06-14T10:47:32;101294.44;;;23.00;53.78
21357;BME280;10836;53.068;18.234;2023-06-14T10:52:33;101288.38;;;23.18;49.93
21357;BME280;10836;53.068;18.234;2023-06-14T10:55:15;101285.56;;;24.52;47.70
21357;BME280;10836;53.068;18.234;2023-06-14T10:57:46;101278.66;;;24.90;45.49
21357;BME280;10836;53.068;18.234;2023-06-14T11:00:20;101281.22;;;24.15;43.21
21357;BME280;10836;53.068;18.234;2023-06-14T11:11:06;101274.66;;;23.13;48.24
21357;BME280;10836;53.068;18.234;2023-06-14T11:13:33;101278.53;;;23.45;46.57
21357;BME280;10836;53.068;18.234;2023-06-14T11:16:00;101264.25;;;23.35;45.34
21357;BME280;10836;53.068;18.234;2023-06-14T11:18:28;101264.81;;;22.83;46.35
21357;BME280;10836;53.068;18.234;2023-06-14T11:20:55;101268.56;;;22.99;45.90
21357;BME280;10836;53.068;18.234;2023-06-14T11:23:22;101260.59;;;23.67;44.95
21357;BME280;10836;53.068;18.234;2023-06-14T11:25:52;101270.94;;;24.43;44.05
21357;BME280;10836;53.068;18.234;2023-06-14T11:28:19;101266.50;;;24.54;37.48
21357;BME280;10836;53.068;18.234;2023-06-14T11:30:49;101257.66;;;23.88;40.96
21357;BME280;10836;53.068;18.234;2023-06-14T11:33:26;101261.72;;;23.91;40.86
21357;BME280;10836;53.068;18.234;2023-06-14T11:35:53;101255.88;;;24.60;37.85
21357;BME280;10836;53.068;18.234;2023-06-14T11:38:20;101262.59;;;24.99;36.63
21357;BME280;10836;53.068;18.234;2023-06-14T11:40:47;101267.28;;;24.83;35.02
21357;BME280;10836;53.068;18.234;2023-06-14T11:43:14;101264.25;;;25.47;36.81
21357;BME280;10836;53.068;18.234;2023-06-14T11:45:41;101263.63;;;24.39;35.41
21357;BME280;10836;53.068;18.234;2023-06-14T11:48:10;101269.31;;;24.42;38.40
21357;BME280;10836;53.068;18.234;2023-06-14T11:50:37;101260.41;;;24.65;39.49
21357;BME280;10836;53.068;18.234;2023-06-14T11:53:06;101257.72;;;24.28;42.44
21357;BME280;10836;53.068;18.234;2023-06-14T11:55:37;101253.44;;;23.45;43.76
21357;BME280;10836;53.068;18.234;2023-06-14T11:58:06;101258.13;;;22.96;44.95
21357;BME280;10836;53.068;18.234;2023-06-14T12:00:35;101242.94;;;22.73;45.15
21357;BME280;10836;53.068;18.234;2023-06-14T12:03:03;101254.81;;;22.49;45.23
21357;BME280;10836;53.068;18.234;2023-06-14T12:05:33;101255.31;;;22.01;45.97
21357;BME280;10836;53.068;18.234;2023-06-14T12:08:03;101244.81;;;22.06;43.97
21357;BME280;10836;53.068;18.234;2023-06-14T12:10:39;101239.88;;;21.82;45.32
21357;BME280;10836;53.068;18.234;2023-06-14T12:13:06;101250.41;;;21.98;44.96
21357;BME280;10836;53.068;18.234;2023-06-14T12:15:34;101248.78;;;21.97;45.60
21357;BME280;10836;53.068;18.234;2023-06-14T12:18:05;101245.09;;;21.84;43.80
21357;BME280;10836;53.068;18.234;2023-06-14T12:20:33;101245.56;;;22.15;43.03
21357;BME280;10836;53.068;18.234;2023-06-14T12:23:47;101248.91;;;22.09;43.73
21357;BME280;10836;53.068;18.234;2023-06-14T12:26:17;101244.19;;;22.01;46.02
21357;BME280;10836;53.068;18.234;2023-06-14T12:31:47;101238.34;;;21.26;44.53
21357;BME280;10836;53.068;18.234;2023-06-14T12:34:14;101238.38;;;21.17;42.38
21357;BME280;10836;53.068;18.234;2023-06-14T12:39:43;101240.75;;;21.36;43.58
21357;BME280;10836;53.068;18.234;2023-06-14T12:45:17;101241.94;;;21.27;44.13
21357;BME280;10836;53.068;18.234;2023-06-14T12:47:45;101247.72;;;21.51;43.92
21357;BME280;10836;53.068;18.234;2023-06-14T12:53:12;101246.91;;;20.95;46.26
21357;BME280;10836;53.068;18.234;2023-06-14T12:58:49;101249.72;;;21.42;53.35
21357;BME280;10836;53.068;18.234;2023-06-14T13:01:16;101244.31;;;21.45;50.90
21357;BME280;10836;53.068;18.234;2023-06-14T13:03:43;101247.84;;;21.16;51.66
21357;BME280;10836;53.068;18.234;2023-06-14T13:06:10;101252.94;;;21.06;50.98
21357;BME280;10836;53.068;18.234;2023-06-14T13:09:03;101251.75;;;21.15;48.99
21357;BME280;10836;53.068;18.234;2023-06-14T13:11:30;101249.56;;;21.38;49.74
21357;BME280;10836;53.068;18.234;2023-06-14T13:13:57;101250.47;;;21.21;48.41
21357;BME280;10836;53.068;18.234;2023-06-14T13:16:49;101248.09;;;21.41;47.70
21357;BME280;10836;53.068;18.234;2023-06-14T13:19:16;101246.09;;;21.50;46.82